To NAV CANADA Home Page Login to a new session Search on AWWS site Disclaimer Vers la page française équivalente Tips FAQ What's new on the site To the Forecasts and Observations / NOTAM section To "File a Flight Plan" website Publications and other links Update of the User's profile FIC Telephone Numbers My Weather Data Folder Route Weather Data Regional Weather Data Local Weather Data To the Forecasts and Observations / NOTAM section
Request Generated 11/13/2018 at 18:37:18 UTC . Weather information available at that time is displayed.

METAR/TAF

COMOX/BC    

METAR CYQQ 131800Z 00000KT 20SM OVC090 07/05 A3030 RMK AC8 SLP261=
METAR CYQQ 131700Z 15005KT 20SM BKN130 OVC250 05/05 A3029 RMK AC7CI1 SLP259=
METAR CYQQ 131600Z 00000KT 20SM MIFG BKN180 OVC250 02/02 A3030 RMK AC6CI2 SLP263=

TAF CYQQ 131739Z 1318/1418 14008KT P6SM FEW040 BKN100 OVC240
FM131900 14012G22KT P6SM SCT040 OVC080 TEMPO 1319/1321 P6SM -RA
OVC040
FM132100 14020G30KT P6SM -RA SCT015 OVC030 TEMPO 1321/1416 4SM
-RA BR OVC015
FM141600 14015G25KT P6SM SCT015 BKN040
RMK NXT FCST BY 140000Z=
Your time UTC time
Weather data provided by Environment Canada and NAV CANADA